sensor_id;sensor_type;location;lat;lon;timestamp;P1;P2;P0
65360;PMS5003;51958;55.018;73.536;2024-03-22T00:01:16;9.00;8.33;4.00
65360;PMS5003;51958;55.018;73.536;2024-03-22T00:04:18;11.00;9.00;5.00
65360;PMS5003;51958;55.018;73.536;2024-03-22T00:07:19;13.00;11.00;6.33
65360;PMS5003;51958;55.018;73.536;2024-03-22T00:10:20;15.00;13.33;7.00
65360;PMS5003;51958;55.018;73.536;2024-03-22T00:13:22;14.00;13.50;7.00
65360;PMS5003;51958;55.018;73.536;2024-03-22T00:16:23;14.33;13.33;8.00
65360;PMS5003;51958;55.018;73.536;2024-03-22T00:19:24;16.00;13.00;6.00
65360;PMS5003;51958;55.018;73.536;2024-03-22T00:22:25;14.00;13.33;6.33
65360;PMS5003;51958;55.018;73.536;2024-03-22T00:25:26;15.00;13.00;6.50
65360;PMS5003;51958;55.018;73.536;2024-03-22T00:28:28;13.50;12.00;6.00
65360;PMS5003;51958;55.018;73.536;2024-03-22T00:31:29;14.00;14.00;6.33
65360;PMS5003;51958;55.018;73.536;2024-03-22T00:34:31;16.33;14.67;7.67
65360;PMS5003;51958;55.018;73.536;2024-03-22T00:37:32;14.67;13.00;6.00
65360;PMS5003;51958;55.018;73.536;2024-03-22T00:40:33;14.33;14.00;6.33
65360;PMS5003;51958;55.018;73.536;2024-03-22T00:43:34;14.00;13.00;5.67
65360;PMS5003;51958;55.018;73.536;2024-03-22T00:46:36;16.00;13.00;5.67
65360;PMS5003;51958;55.018;73.536;2024-03-22T00:49:37;16.00;14.00;8.00
65360;PMS5003;51958;55.018;73.536;2024-03-22T00:52:39;18.00;15.33;9.00
65360;PMS5003;51958;55.018;73.536;2024-03-22T00:55:40;16.00;15.00;8.00
65360;PMS5003;51958;55.018;73.536;2024-03-22T00:58:41;18.67;16.67;9.67
65360;PMS5003;51958;55.018;73.536;2024-03-22T01:01:42;20.00;15.33;9.00
65360;PMS5003;51958;55.018;73.536;2024-03-22T01:04:44;20.00;17.00;11.00
65360;PMS5003;51958;55.018;73.536;2024-03-22T01:07:46;17.67;16.00;10.00
65360;PMS5003;51958;55.018;73.536;2024-03-22T01:10:47;20.33;18.00;10.00
65360;PMS5003;51958;55.018;73.536;2024-03-22T01:13:49;21.00;17.00;11.00
65360;PMS5003;51958;55.018;73.536;2024-03-22T01:16:50;20.00;18.00;11.00
65360;PMS5003;51958;55.018;73.536;2024-03-22T01:19:51;22.00;19.00;12.00
65360;PMS5003;51958;55.018;73.536;2024-03-22T01:22:53;21.00;19.67;12.00
65360;PMS5003;51958;55.018;73.536;2024-03-22T01:25:54;20.00;17.00;12.00
65360;PMS5003;51958;55.018;73.536;2024-03-22T01:28:55;18.00;16.00;12.00
65360;PMS5003;51958;55.018;73.536;2024-03-22T01:32:00;18.00;16.00;11.00
65360;PMS5003;51958;55.018;73.536;2024-03-22T01:35:01;16.67;16.00;12.00
65360;PMS5003;51958;55.018;73.536;2024-03-22T01:38:03;16.50;16.00;9.00
65360;PMS5003;51958;55.018;73.536;2024-03-22T01:41:04;17.00;17.00;10.00
65360;PMS5003;51958;55.018;73.536;2024-03-22T01:44:06;50.33;41.33;29.33
65360;PMS5003;51958;55.018;73.536;2024-03-22T01:47:07;43.67;34.33;24.00
65360;PMS5003;51958;55.018;73.536;2024-03-22T01:50:08;33.00;26.00;18.00
65360;PMS5003;51958;55.018;73.536;2024-03-22T01:53:10;29.00;24.00;16.00
65360;PMS5003;51958;55.018;73.536;2024-03-22T01:56:11;27.00;23.00;16.00
65360;PMS5003;51958;55.018;73.536;2024-03-22T01:59:13;27.50;24.00;16.00
65360;PMS5003;51958;55.018;73.536;2024-03-22T02:02:14;28.00;24.00;16.00
65360;PMS5003;51958;55.018;73.536;2024-03-22T02:05:16;31.50;25.75;16.75
65360;PMS5003;51958;55.018;73.536;2024-03-22T02:08:20;37.00;28.67;18.67
65360;PMS5003;51958;55.018;73.536;2024-03-22T02:11:21;37.00;29.00;19.00
65360;PMS5003;51958;55.018;73.536;2024-03-22T02:14:22;37.00;30.00;20.00
65360;PMS5003;51958;55.018;73.536;2024-03-22T02:17:24;38.00;30.00;20.00
65360;PMS5003;51958;55.018;73.536;2024-03-22T02:20:25;39.00;32.50;21.00
65360;PMS5003;51958;55.018;73.536;2024-03-22T02:23:36;39.00;32.67;21.00
65360;PMS5003;51958;55.018;73.536;2024-03-22T02:26:37;41.00;33.33;23.00
65360;PMS5003;51958;55.018;73.536;2024-03-22T02:29:39;43.33;35.00;23.33
65360;PMS5003;51958;55.018;73.536;2024-03-22T02:32:40;44.33;34.33;23.33
65360;PMS5003;51958;55.018;73.536;2024-03-22T02:35:41;44.00;35.00;23.00
65360;PMS5003;51958;55.018;73.536;2024-03-22T02:38:43;44.00;35.00;23.00
65360;PMS5003;51958;55.018;73.536;2024-03-22T02:41:44;45.00;35.33;24.00
65360;PMS5003;51958;55.018;73.536;2024-03-22T02:44:45;45.50;36.00;24.00
65360;PMS5003;51958;55.018;73.536;2024-03-22T02:47:46;46.67;36.00;24.00
65360;PMS5003;51958;55.018;73.536;2024-03-22T02:50:48;44.00;36.00;24.00
65360;PMS5003;51958;55.018;73.536;2024-03-22T02:53:49;44.00;36.00;24.00
65360;PMS5003;51958;55.018;73.536;2024-03-22T02:56:50;43.00;35.00;24.00
65360;PMS5003;51958;55.018;73.536;2024-03-22T02:59:52;43.00;35.00;23.00
65360;PMS5003;51958;55.018;73.536;2024-03-22T03:02:53;44.00;35.00;23.50
65360;PMS5003;51958;55.018;73.536;2024-03-22T03:05:55;44.00;35.00;24.00
65360;PMS5003;51958;55.018;73.536;2024-03-22T03:08:56;43.33;35.00;24.00
65360;PMS5003;51958;55.018;73.536;2024-03-22T03:11:57;46.00;36.33;24.33
65360;PMS5003;51958;55.018;73.536;2024-03-22T03:14:59;44.33;35.00;24.00
65360;PMS5003;51958;55.018;73.536;2024-03-22T03:18:00;43.00;34.00;22.00
65360;PMS5003;51958;55.018;73.536;2024-03-22T03:21:10;42.50;33.50;22.00
65360;PMS5003;51958;55.018;73.536;2024-03-22T03:24:12;42.33;35.00;23.00
65360;PMS5003;51958;55.018;73.536;2024-03-22T03:27:13;42.33;34.00;22.00
65360;PMS5003;51958;55.018;73.536;2024-03-22T03:30:14;44.33;35.33;24.00
65360;PMS5003;51958;55.018;73.536;2024-03-22T03:33:15;44.33;35.33;24.67
65360;PMS5003;51958;55.018;73.536;2024-03-22T03:36:16;44.67;35.67;25.00
65360;PMS5003;51958;55.018;73.536;2024-03-22T03:39:18;43.00;35.00;24.00
65360;PMS5003;51958;55.018;73.536;2024-03-22T03:42:19;42.00;34.67;23.33
65360;PMS5003;51958;55.018;73.536;2024-03-22T03:45:20;40.00;33.00;22.33
65360;PMS5003;51958;55.018;73.536;2024-03-22T03:48:22;37.00;31.00;21.33
65360;PMS5003;51958;55.018;73.536;2024-03-22T03:51:23;37.33;31.33;21.00
65360;PMS5003;51958;55.018;73.536;2024-03-22T03:54:24;42.00;33.67;22.00
65360;PMS5003;51958;55.018;73.536;2024-03-22T03:57:25;41.00;33.00;22.00
65360;PMS5003;51958;55.018;73.536;2024-03-22T04:00:27;42.00;34.33;23.00
65360;PMS5003;51958;55.018;73.536;2024-03-22T04:03:28;49.00;37.67;25.33
65360;PMS5003;51958;55.018;73.536;2024-03-22T04:06:29;49.00;38.33;26.00
65360;PMS5003;51958;55.018;73.536;2024-03-22T04:09:31;45.00;36.00;24.00
65360;PMS5003;51958;55.018;73.536;2024-03-22T04:12:32;46.33;36.00;24.33
65360;PMS5003;51958;55.018;73.536;2024-03-22T04:15:34;46.00;36.00;24.33
65360;PMS5003;51958;55.018;73.536;2024-03-22T04:18:36;42.00;33.33;23.00
65360;PMS5003;51958;55.018;73.536;2024-03-22T04:21:37;41.00;33.00;22.00
65360;PMS5003;51958;55.018;73.536;2024-03-22T04:24:38;41.00;32.33;22.00
65360;PMS5003;51958;55.018;73.536;2024-03-22T04:27:40;42.67;33.00;22.00
65360;PMS5003;51958;55.018;73.536;2024-03-22T04:30:41;44.33;35.00;23.00
65360;PMS5003;51958;55.018;73.536;2024-03-22T04:33:42;43.50;34.50;24.00
65360;PMS5003;51958;55.018;73.536;2024-03-22T04:36:44;45.50;37.00;25.00
65360;PMS5003;51958;55.018;73.536;2024-03-22T04:39:45;41.00;33.00;23.00
65360;PMS5003;51958;55.018;73.536;2024-03-22T04:42:46;41.33;32.00;21.00
65360;PMS5003;51958;55.018;73.536;2024-03-22T04:45:48;43.33;33.67;22.00
65360;PMS5003;51958;55.018;73.536;2024-03-22T04:48:49;41.33;33.33;22.00
65360;PMS5003;51958;55.018;73.536;2024-03-22T04:51:50;38.33;32.00;22.00
65360;PMS5003;51958;55.018;73.536;2024-03-22T04:54:52;40.00;32.67;21.00
65360;PMS5003;51958;55.018;73.536;2024-03-22T04:57:53;38.33;32.00;21.00
65360;PMS5003;51958;55.018;73.536;2024-03-22T05:00:57;40.00;33.00;21.33
65360;PMS5003;51958;55.018;73.536;2024-03-22T05:03:59;42.33;33.33;22.00
65360;PMS5003;51958;55.018;73.536;2024-03-22T05:07:00;42.33;34.33;22.00
65360;PMS5003;51958;55.018;73.536;2024-03-22T05:10:01;40.00;33.00;22.00
65360;PMS5003;51958;55.018;73.536;2024-03-22T05:13:05;42.00;34.00;22.00
65360;PMS5003;51958;55.018;73.536;2024-03-22T05:16:06;40.33;33.00;22.00
65360;PMS5003;51958;55.018;73.536;2024-03-22T05:19:08;37.00;31.00;21.00
65360;PMS5003;51958;55.018;73.536;2024-03-22T05:22:09;26.33;25.00;17.33
65360;PMS5003;51958;55.018;73.536;2024-03-22T05:25:10;23.33;22.00;16.00
65360;PMS5003;51958;55.018;73.536;2024-03-22T05:28:13;25.00;24.00;16.00
65360;PMS5003;51958;55.018;73.536;2024-03-22T05:31:14;23.33;23.33;16.00
65360;PMS5003;51958;55.018;73.536;2024-03-22T05:34:16;31.00;27.67;19.00
65360;PMS5003;51958;55.018;73.536;2024-03-22T05:37:30;34.00;29.00;19.00
65360;PMS5003;51958;55.018;73.536;2024-03-22T05:40:32;35.00;30.00;20.00
65360;PMS5003;51958;55.018;73.536;2024-03-22T05:43:34;32.33;28.33;20.00
65360;PMS5003;51958;55.018;73.536;2024-03-22T05:46:35;34.00;29.00;20.00
65360;PMS5003;51958;55.018;73.536;2024-03-22T05:49:37;37.00;29.00;20.00
65360;PMS5003;51958;55.018;73.536;2024-03-22T05:52:38;40.00;32.33;22.00
65360;PMS5003;51958;55.018;73.536;2024-03-22T05:55:39;41.00;33.00;22.00
65360;PMS5003;51958;55.018;73.536;2024-03-22T05:58:40;40.75;33.00;22.00
65360;PMS5003;51958;55.018;73.536;2024-03-22T06:01:42;41.00;32.67;21.67
65360;PMS5003;51958;55.018;73.536;2024-03-22T06:04:43;41.00;33.00;22.00
65360;PMS5003;51958;55.018;73.536;2024-03-22T06:07:44;41.33;34.00;23.00
65360;PMS5003;51958;55.018;73.536;2024-03-22T06:10:47;41.00;32.00;21.00
65360;PMS5003;51958;55.018;73.536;2024-03-22T06:13:48;38.00;31.00;21.00
65360;PMS5003;51958;55.018;73.536;2024-03-22T06:16:49;37.00;31.00;20.33
65360;PMS5003;51958;55.018;73.536;2024-03-22T06:19:50;37.33;30.00;20.00
65360;PMS5003;51958;55.018;73.536;2024-03-22T06:22:52;36.33;29.00;20.00
65360;PMS5003;51958;55.018;73.536;2024-03-22T06:25:53;31.00;27.00;19.00
65360;PMS5003;51958;55.018;73.536;2024-03-22T06:28:55;30.00;26.00;18.00
65360;PMS5003;51958;55.018;73.536;2024-03-22T06:31:56;29.00;25.00;18.00
65360;PMS5003;51958;55.018;73.536;2024-03-22T06:34:57;30.00;26.33;18.00
65360;PMS5003;51958;55.018;73.536;2024-03-22T06:37:59;28.00;25.00;16.33
65360;PMS5003;51958;55.018;73.536;2024-03-22T06:41:03;24.00;23.00;16.00
65360;PMS5003;51958;55.018;73.536;2024-03-22T06:44:05;20.00;19.00;13.67
65360;PMS5003;51958;55.018;73.536;2024-03-22T06:47:06;20.33;17.00;11.00
65360;PMS5003;51958;55.018;73.536;2024-03-22T06:50:07;15.00;15.00;8.33
65360;PMS5003;51958;55.018;73.536;2024-03-22T06:53:09;14.33;14.00;6.00
65360;PMS5003;51958;55.018;73.536;2024-03-22T06:56:13;14.67;14.00;6.67
65360;PMS5003;51958;55.018;73.536;2024-03-22T06:59:14;15.00;14.00;8.00
65360;PMS5003;51958;55.018;73.536;2024-03-22T07:02:15;15.33;14.00;6.00
65360;PMS5003;51958;55.018;73.536;2024-03-22T07:05:17;15.67;12.00;6.00
65360;PMS5003;51958;55.018;73.536;2024-03-22T07:08:18;16.67;12.00;6.00
65360;PMS5003;51958;55.018;73.536;2024-03-22T07:11:19;14.00;9.00;4.00
65360;PMS5003;51958;55.018;73.536;2024-03-22T07:14:21;11.00;8.00;4.00
65360;PMS5003;51958;55.018;73.536;2024-03-22T07:17:25;10.00;7.00;5.00
65360;PMS5003;51958;55.018;73.536;2024-03-22T07:20:26;10.00;7.00;4.00
65360;PMS5003;51958;55.018;73.536;2024-03-22T07:23:27;9.00;6.33;4.00
65360;PMS5003;51958;55.018;73.536;2024-03-22T07:26:29;5.67;5.00;4.00
65360;PMS5003;51958;55.018;73.536;2024-03-22T07:29:30;4.00;4.00;2.00
65360;PMS5003;51958;55.018;73.536;2024-03-22T07:32:31;4.00;4.00;3.00
65360;PMS5003;51958;55.018;73.536;2024-03-22T07:35:34;4.00;4.00;2.00
65360;PMS5003;51958;55.018;73.536;2024-03-22T07:38:35;5.33;5.00;3.00
65360;PMS5003;51958;55.018;73.536;2024-03-22T07:41:37;5.33;5.33;3.00
65360;PMS5003;51958;55.018;73.536;2024-03-22T07:44:38;4.00;4.00;2.00
65360;PMS5003;51958;55.018;73.536;2024-03-22T07:47:39;4.00;4.00;4.00
65360;PMS5003;51958;55.018;73.536;2024-03-22T07:50:43;5.00;5.00;4.00
65360;PMS5003;51958;55.018;73.536;2024-03-22T07:53:44;6.00;6.00;3.00
65360;PMS5003;51958;55.018;73.536;2024-03-22T07:56:45;5.00;5.00;2.00
65360;PMS5003;51958;55.018;73.536;2024-03-22T07:59:46;7.00;6.00;1.67
65360;PMS5003;51958;55.018;73.536;2024-03-22T08:02:48;6.00;5.33;3.00
65360;PMS5003;51958;55.018;73.536;2024-03-22T08:05:51;7.67;7.67;4.00
65360;PMS5003;51958;55.018;73.536;2024-03-22T08:08:52;7.00;7.00;4.00
65360;PMS5003;51958;55.018;73.536;2024-03-22T08:11:54;6.67;6.33;4.00
65360;PMS5003;51958;55.018;73.536;2024-03-22T08:14:55;8.67;8.00;4.00
65360;PMS5003;51958;55.018;73.536;2024-03-22T08:17:56;9.00;7.00;4.00
65360;PMS5003;51958;55.018;73.536;2024-03-22T08:20:58;9.00;8.00;4.00
65360;PMS5003;51958;55.018;73.536;2024-03-22T08:24:00;5.67;5.00;4.00
65360;PMS5003;51958;55.018;73.536;2024-03-22T08:27:01;6.00;5.00;4.00
65360;PMS5003;51958;55.018;73.536;2024-03-22T08:30:02;5.00;4.33;4.00
65360;PMS5003;51958;55.018;73.536;2024-03-22T08:33:05;6.33;5.33;3.00
65360;PMS5003;51958;55.018;73.536;2024-03-22T08:36:06;7.67;5.00;3.00
65360;PMS5003;51958;55.018;73.536;2024-03-22T08:39:07;6.00;4.50;2.50
65360;PMS5003;51958;55.018;73.536;2024-03-22T08:42:11;5.00;5.00;3.00
65360;PMS5003;51958;55.018;73.536;2024-03-22T08:45:12;9.00;7.00;3.00
65360;PMS5003;51958;55.018;73.536;2024-03-22T08:48:13;5.00;4.33;3.00
65360;PMS5003;51958;55.018;73.536;2024-03-22T08:51:15;6.00;5.00;4.00
65360;PMS5003;51958;55.018;73.536;2024-03-22T08:54:16;5.00;5.00;4.00
65360;PMS5003;51958;55.018;73.536;2024-03-22T08:57:17;8.33;7.00;4.00
65360;PMS5003;51958;55.018;73.536;2024-03-22T09:00:18;6.00;5.00;4.00
65360;PMS5003;51958;55.018;73.536;2024-03-22T09:03:20;5.00;5.00;4.00
65360;PMS5003;51958;55.018;73.536;2024-03-22T09:06:22;7.00;6.00;3.00
65360;PMS5003;51958;55.018;73.536;2024-03-22T09:09:23;5.00;4.00;2.00
65360;PMS5003;51958;55.018;73.536;2024-03-22T09:12:27;7.67;6.00;3.33
65360;PMS5003;51958;55.018;73.536;2024-03-22T09:15:29;7.00;6.00;3.00
65360;PMS5003;51958;55.018;73.536;2024-03-22T09:18:30;8.00;6.00;3.33
65360;PMS5003;51958;55.018;73.536;2024-03-22T09:21:32;5.00;5.00;4.00
65360;PMS5003;51958;55.018;73.536;2024-03-22T09:24:33;8.00;7.67;4.00
65360;PMS5003;51958;55.018;73.536;2024-03-22T09:27:34;4.67;4.67;3.33
65360;PMS5003;51958;55.018;73.536;2024-03-22T09:30:39;7.00;6.00;4.00
65360;PMS5003;51958;55.018;73.536;2024-03-22T09:33:40;8.33;8.00;4.00
65360;PMS5003;51958;55.018;73.536;2024-03-22T09:36:43;8.33;7.00;4.00
65360;PMS5003;51958;55.018;73.536;2024-03-22T09:39:44;9.33;8.00;4.00
65360;PMS5003;51958;55.018;73.536;2024-03-22T09:42:45;8.00;7.00;4.00
65360;PMS5003;51958;55.018;73.536;2024-03-22T09:45:50;7.33;7.00;4.00
65360;PMS5003;51958;55.018;73.536;2024-03-22T09:48:51;8.00;7.00;3.00
65360;PMS5003;51958;55.018;73.536;2024-03-22T09:51:53;7.00;7.00;4.00
65360;PMS5003;51958;55.018;73.536;2024-03-22T09:54:55;7.00;5.00;3.00
65360;PMS5003;51958;55.018;73.536;2024-03-22T09:57:56;4.00;4.00;2.00
65360;PMS5003;51958;55.018;73.536;2024-03-22T10:00:58;6.00;5.00;3.00
65360;PMS5003;51958;55.018;73.536;2024-03-22T10:04:02;6.67;6.00;4.00
65360;PMS5003;51958;55.018;73.536;2024-03-22T10:07:03;6.00;6.00;3.00
65360;PMS5003;51958;55.018;73.536;2024-03-22T10:10:05;8.00;7.00;4.00
65360;PMS5003;51958;55.018;73.536;2024-03-22T10:13:08;7.00;6.33;3.00
65360;PMS5003;51958;55.018;73.536;2024-03-22T10:16:10;9.00;8.00;5.00
65360;PMS5003;51958;55.018;73.536;2024-03-22T10:19:11;9.00;9.00;4.00
65360;PMS5003;51958;55.018;73.536;2024-03-22T10:22:12;12.00;12.00;6.00
65360;PMS5003;51958;55.018;73.536;2024-03-22T10:25:17;12.00;12.00;5.00
65360;PMS5003;51958;55.018;73.536;2024-03-22T10:28:19;10.00;8.00;4.00
65360;PMS5003;51958;55.018;73.536;2024-03-22T10:31:20;8.00;7.00;4.00
65360;PMS5003;51958;55.018;73.536;2024-03-22T10:34:21;7.00;5.67;3.00
65360;PMS5003;51958;55.018;73.536;2024-03-22T10:37:23;6.33;6.33;4.00
65360;PMS5003;51958;55.018;73.536;2024-03-22T10:40:27;6.00;6.00;4.00
65360;PMS5003;51958;55.018;73.536;2024-03-22T10:43:28;7.00;7.00;4.00
65360;PMS5003;51958;55.018;73.536;2024-03-22T10:46:30;7.67;6.33;4.00
65360;PMS5003;51958;55.018;73.536;2024-03-22T10:49:32;10.00;6.00;4.00
65360;PMS5003;51958;55.018;73.536;2024-03-22T10:52:51;9.67;7.33;4.00
65360;PMS5003;51958;55.018;73.536;2024-03-22T10:55:53;11.33;9.33;4.00
65360;PMS5003;51958;55.018;73.536;2024-03-22T10:58:55;11.00;10.00;3.33
65360;PMS5003;51958;55.018;73.536;2024-03-22T11:02:02;10.00;9.00;4.00
65360;PMS5003;51958;55.018;73.536;2024-03-22T11:05:04;11.00;10.00;4.00
65360;PMS5003;51958;55.018;73.536;2024-03-22T11:08:06;12.50;10.00;5.00
65360;PMS5003;51958;55.018;73.536;2024-03-22T11:11:17;13.00;9.67;5.00
65360;PMS5003;51958;55.018;73.536;2024-03-22T11:14:20;13.00;11.00;5.00
65360;PMS5003;51958;55.018;73.536;2024-03-22T11:17:21;13.00;11.00;7.00
65360;PMS5003;51958;55.018;73.536;2024-03-22T11:20:26;13.00;11.00;7.00
65360;PMS5003;51958;55.018;73.536;2024-03-22T11:23:28;11.00;8.00;5.00
65360;PMS5003;51958;55.018;73.536;2024-03-22T11:26:29;12.00;11.00;6.00
65360;PMS5003;51958;55.018;73.536;2024-03-22T11:29:31;14.00;12.00;6.50
65360;PMS5003;51958;55.018;73.536;2024-03-22T11:32:33;13.00;12.00;6.00
65360;PMS5003;51958;55.018;73.536;2024-03-22T11:35:35;14.00;13.00;6.00
65360;PMS5003;51958;55.018;73.536;2024-03-22T11:38:37;14.00;12.00;7.00
65360;PMS5003;51958;55.018;73.536;2024-03-22T11:41:38;14.00;14.00;7.00
65360;PMS5003;51958;55.018;73.536;2024-03-22T11:44:40;13.00;13.00;5.00
65360;PMS5003;51958;55.018;73.536;2024-03-22T11:47:41;13.00;12.00;5.00
65360;PMS5003;51958;55.018;73.536;2024-03-22T11:50:43;15.00;14.00;7.00
65360;PMS5003;51958;55.018;73.536;2024-03-22T11:53:51;15.00;14.00;6.33
65360;PMS5003;51958;55.018;73.536;2024-03-22T11:56:55;13.00;12.00;6.00
65360;PMS5003;51958;55.018;73.536;2024-03-22T12:00:01;14.00;13.50;7.00
65360;PMS5003;51958;55.018;73.536;2024-03-22T12:03:13;14.00;14.00;7.00
65360;PMS5003;51958;55.018;73.536;2024-03-22T12:06:15;13.33;13.00;7.00
65360;PMS5003;51958;55.018;73.536;2024-03-22T12:09:16;14.00;13.00;6.00
65360;PMS5003;51958;55.018;73.536;2024-03-22T12:12:17;13.33;12.67;6.33
65360;PMS5003;51958;55.018;73.536;2024-03-22T12:15:41;14.33;13.33;6.33
65360;PMS5003;51958;55.018;73.536;2024-03-22T12:18:43;12.00;10.00;5.00
65360;PMS5003;51958;55.018;73.536;2024-03-22T12:21:44;13.33;12.00;6.33
65360;PMS5003;51958;55.018;73.536;2024-03-22T12:24:45;16.67;13.33;6.00
65360;PMS5003;51958;55.018;73.536;2024-03-22T12:27:46;20.00;15.67;7.33
65360;PMS5003;51958;55.018;73.536;2024-03-22T12:30:49;17.00;16.00;7.00
65360;PMS5003;51958;55.018;73.536;2024-03-22T12:33:50;15.33;14.00;6.00
65360;PMS5003;51958;55.018;73.536;2024-03-22T12:36:51;15.00;14.00;5.00
65360;PMS5003;51958;55.018;73.536;2024-03-22T12:40:08;16.33;13.00;6.00
65360;PMS5003;51958;55.018;73.536;2024-03-22T12:43:09;16.00;13.00;6.33
65360;PMS5003;51958;55.018;73.536;2024-03-22T12:46:12;17.00;14.00;9.33
65360;PMS5003;51958;55.018;73.536;2024-03-22T12:49:13;17.00;16.00;11.00
65360;PMS5003;51958;55.018;73.536;2024-03-22T12:52:14;16.00;15.00;10.00
65360;PMS5003;51958;55.018;73.536;2024-03-22T12:55:16;14.00;13.33;6.33
65360;PMS5003;51958;55.018;73.536;2024-03-22T12:58:18;17.00;14.00;7.00
65360;PMS5003;51958;55.018;73.536;2024-03-22T13:01:19;16.00;13.00;7.67
65360;PMS5003;51958;55.018;73.536;2024-03-22T13:04:40;21.00;16.33;9.33
65360;PMS5003;51958;55.018;73.536;2024-03-22T13:07:42;20.00;18.00;12.00
65360;PMS5003;51958;55.018;73.536;2024-03-22T13:11:03;20.00;19.00;13.00
65360;PMS5003;51958;55.018;73.536;2024-03-22T13:14:04;20.00;18.00;13.00
65360;PMS5003;51958;55.018;73.536;2024-03-22T13:17:06;19.00;18.00;12.00
65360;PMS5003;51958;55.018;73.536;2024-03-22T13:20:07;19.00;17.00;11.00
65360;PMS5003;51958;55.018;73.536;2024-03-22T13:23:11;21.00;16.00;12.00
65360;PMS5003;51958;55.018;73.536;2024-03-22T13:26:31;21.00;19.00;12.00
65360;PMS5003;51958;55.018;73.536;2024-03-22T13:29:33;20.00;16.00;12.00
65360;PMS5003;51958;55.018;73.536;2024-03-22T13:32:34;20.00;17.00;12.00
65360;PMS5003;51958;55.018;73.536;2024-03-22T13:35:35;19.00;18.00;11.00
65360;PMS5003;51958;55.018;73.536;2024-03-22T13:38:36;17.00;17.00;11.00
65360;PMS5003;51958;55.018;73.536;2024-03-22T13:41:38;18.00;17.00;11.00
65360;PMS5003;51958;55.018;73.536;2024-03-22T13:44:59;19.33;16.33;9.67
65360;PMS5003;51958;55.018;73.536;2024-03-22T13:48:09;19.00;16.33;11.67
65360;PMS5003;51958;55.018;73.536;2024-03-22T13:51:11;19.00;17.00;12.00
65360;PMS5003;51958;55.018;73.536;2024-03-22T13:54:12;22.67;19.33;13.33
65360;PMS5003;51958;55.018;73.536;2024-03-22T13:57:14;20.67;19.00;13.00
65360;PMS5003;51958;55.018;73.536;2024-03-22T14:00:15;18.00;18.00;13.00
65360;PMS5003;51958;55.018;73.536;2024-03-22T14:03:17;20.00;19.00;13.00
65360;PMS5003;51958;55.018;73.536;2024-03-22T14:06:18;19.00;18.00;13.00
65360;PMS5003;51958;55.018;73.536;2024-03-22T14:09:19;18.33;17.33;12.00
65360;PMS5003;51958;55.018;73.536;2024-03-22T14:12:21;21.00;18.00;12.00
65360;PMS5003;51958;55.018;73.536;2024-03-22T14:15:22;20.33;18.00;12.00
65360;PMS5003;51958;55.018;73.536;2024-03-22T14:18:25;21.50;18.00;12.50
65360;PMS5003;51958;55.018;73.536;2024-03-22T14:21:27;20.33;19.00;12.00
65360;PMS5003;51958;55.018;73.536;2024-03-22T14:24:28;20.33;20.00;12.00
65360;PMS5003;51958;55.018;73.536;2024-03-22T14:27:29;21.00;19.00;13.00
65360;PMS5003;51958;55.018;73.536;2024-03-22T14:30:31;20.00;19.00;12.00
65360;PMS5003;51958;55.018;73.536;2024-03-22T14:33:32;19.33;18.67;13.67
65360;PMS5003;51958;55.018;73.536;2024-03-22T14:36:33;19.00;18.00;14.00
65360;PMS5003;51958;55.018;73.536;2024-03-22T14:39:35;19.33;17.33;14.00
65360;PMS5003;51958;55.018;73.536;2024-03-22T14:42:39;18.00;16.00;11.00
65360;PMS5003;51958;55.018;73.536;2024-03-22T14:45:40;17.00;15.00;9.00
65360;PMS5003;51958;55.018;73.536;2024-03-22T14:48:41;18.00;16.00;10.00
65360;PMS5003;51958;55.018;73.536;2024-03-22T14:51:43;19.00;17.00;10.00
65360;PMS5003;51958;55.018;73.536;2024-03-22T14:54:44;17.00;16.00;10.00
65360;PMS5003;51958;55.018;73.536;2024-03-22T14:57:46;14.00;14.00;8.00
65360;PMS5003;51958;55.018;73.536;2024-03-22T15:00:52;15.33;15.00;9.00
65360;PMS5003;51958;55.018;73.536;2024-03-22T15:03:53;16.00;15.00;8.00
65360;PMS5003;51958;55.018;73.536;2024-03-22T15:06:54;17.00;14.00;8.00
65360;PMS5003;51958;55.018;73.536;2024-03-22T15:09:56;17.00;14.00;8.00
65360;PMS5003;51958;55.018;73.536;2024-03-22T15:12:57;17.00;14.00;7.50
65360;PMS5003;51958;55.018;73.536;2024-03-22T15:15:58;17.00;14.00;8.00
65360;PMS5003;51958;55.018;73.536;2024-03-22T15:19:00;16.00;15.50;8.00
65360;PMS5003;51958;55.018;73.536;2024-03-22T15:22:01;20.00;18.00;9.00
65360;PMS5003;51958;55.018;73.536;2024-03-22T15:25:03;19.50;17.00;10.00
65360;PMS5003;51958;55.018;73.536;2024-03-22T15:28:04;17.50;17.00;9.00
65360;PMS5003;51958;55.018;73.536;2024-03-22T15:31:06;18.00;16.00;10.00
65360;PMS5003;51958;55.018;73.536;2024-03-22T15:34:08;17.00;15.00;9.00
65360;PMS5003;51958;55.018;73.536;2024-03-22T15:37:09;17.00;14.00;8.00
65360;PMS5003;51958;55.018;73.536;2024-03-22T15:40:12;17.00;14.00;7.50
65360;PMS5003;51958;55.018;73.536;2024-03-22T15:43:13;17.00;14.00;8.00
65360;PMS5003;51958;55.018;73.536;2024-03-22T15:46:16;16.50;14.00;8.00
65360;PMS5003;51958;55.018;73.536;2024-03-22T15:49:19;16.50;14.50;9.50
65360;PMS5003;51958;55.018;73.536;2024-03-22T15:52:20;15.50;14.00;8.00
65360;PMS5003;51958;55.018;73.536;2024-03-22T15:55:22;15.00;15.00;8.00
65360;PMS5003;51958;55.018;73.536;2024-03-22T15:58:25;15.50;14.00;8.00
65360;PMS5003;51958;55.018;73.536;2024-03-22T16:01:26;14.50;14.50;8.00
65360;PMS5003;51958;55.018;73.536;2024-03-22T16:04:29;15.00;14.00;8.00
65360;PMS5003;51958;55.018;73.536;2024-03-22T16:07:31;14.00;14.00;7.00
65360;PMS5003;51958;55.018;73.536;2024-03-22T16:10:32;14.50;14.00;7.00
65360;PMS5003;51958;55.018;73.536;2024-03-22T16:13:34;14.00;13.00;5.00
65360;PMS5003;51958;55.018;73.536;2024-03-22T16:16:36;14.50;13.00;5.00
65360;PMS5003;51958;55.018;73.536;2024-03-22T16:19:37;15.00;13.00;6.00
65360;PMS5003;51958;55.018;73.536;2024-03-22T16:22:38;13.50;11.50;5.50
65360;PMS5003;51958;55.018;73.536;2024-03-22T16:25:41;16.00;13.00;7.00
65360;PMS5003;51958;55.018;73.536;2024-03-22T16:28:43;13.50;12.50;6.00
65360;PMS5003;51958;55.018;73.536;2024-03-22T16:31:44;13.50;12.50;5.00
65360;PMS5003;51958;55.018;73.536;2024-03-22T16:34:45;13.50;13.50;5.00
65360;PMS5003;51958;55.018;73.536;2024-03-22T16:37:47;14.50;13.50;5.50
65360;PMS5003;51958;55.018;73.536;2024-03-22T16:40:58;13.67;12.00;5.00
65360;PMS5003;51958;55.018;73.536;2024-03-22T16:43:59;13.50;12.00;5.00
65360;PMS5003;51958;55.018;73.536;2024-03-22T16:47:00;12.00;11.00;5.00
65360;PMS5003;51958;55.018;73.536;2024-03-22T16:50:02;11.00;9.00;5.00
65360;PMS5003;51958;55.018;73.536;2024-03-22T16:53:03;11.00;8.50;4.00
65360;PMS5003;51958;55.018;73.536;2024-03-22T16:56:04;10.50;10.50;5.00
65360;PMS5003;51958;55.018;73.536;2024-03-22T16:59:06;11.00;10.50;5.00
65360;PMS5003;51958;55.018;73.536;2024-03-22T17:02:18;10.67;10.00;5.00